Time,TemperatureF,DewpointF,PressureIn,WindDirection,WindDirectionDegrees,WindSpeedMPH,WindSpeedGustMPH,Humidity,HourlyPrecipIn,Conditions,Clouds,dailyrainin,SoftwareType,DateUTC
2013-09-09 00:03:00,63.0,56.0,-100.00,South,190,2.0,8.0,81,-99.99,,,-99.99,,2013-09-09 05:03:00,
2013-09-09 00:10:00,61.0,59.0,-100.00,South,175,3.0,5.0,92,-99.99,,,-99.99,,2013-09-09 05:10:00,
2013-09-09 00:43:00,61.0,59.0,-100.00,South,175,3.0,5.0,92,-99.99,,,-99.99,,2013-09-09 05:43:00,
2013-09-09 00:53:00,61.0,59.0,-100.00,South,175,3.0,5.0,92,-99.99,,,-99.99,,2013-09-09 05:53:00,
2013-09-09 01:02:00,61.0,59.0,-100.00,South,175,3.0,5.0,92,-99.99,,,-99.99,,2013-09-09 06:02:00,
2013-09-09 01:11:00,61.0,58.0,-100.00,South,180,3.0,7.0,92,-99.99,,,-99.99,,2013-09-09 06:11:00,
2013-09-09 01:42:00,61.0,58.0,-100.00,South,180,3.0,7.0,92,-99.99,,,-99.99,,2013-09-09 06:42:00,
2013-09-09 01:52:00,61.0,58.0,-100.00,South,180,3.0,7.0,92,-99.99,,,-99.99,,2013-09-09 06:52:00,
2013-09-09 02:01:00,61.0,58.0,-100.00,South,180,3.0,7.0,92,-99.99,,,-99.99,,2013-09-09 07:01:00,
2013-09-09 02:10:00,61.0,59.0,-100.00,West,270,1.0,3.0,94,-99.99,,,-99.99,,2013-09-09 07:10:00,
2013-09-09 02:43:00,61.0,59.0,-100.00,West,270,1.0,3.0,94,-99.99,,,-99.99,,2013-09-09 07:43:00,
2013-09-09 02:52:00,61.0,59.0,-100.00,West,270,1.0,3.0,94,-99.99,,,-99.99,,2013-09-09 07:52:00,
2013-09-09 03:02:00,61.0,59.0,-100.00,West,270,1.0,3.0,94,-99.99,,,-99.99,,2013-09-09 08:02:00,
2013-09-09 03:43:00,62.0,60.0,-100.00,South,185,2.0,5.0,93,-99.99,,,-99.99,,2013-09-09 08:43:00,
2013-09-09 03:52:00,62.0,60.0,-100.00,South,185,2.0,5.0,93,-99.99,,,-99.99,,2013-09-09 08:52:00,
2013-09-09 04:02:00,62.0,60.0,-100.00,South,185,2.0,5.0,93,-99.99,,,-99.99,,2013-09-09 09:02:00,
2013-09-09 04:43:00,62.0,60.0,-100.00,SSE,165,1.0,4.0,93,-99.99,,,-99.99,,2013-09-09 09:43:00,
2013-09-09 04:54:00,62.0,60.0,-100.00,SSE,165,1.0,4.0,93,-99.99,,,-99.99,,2013-09-09 09:54:00,
2013-09-09 05:03:00,62.0,60.0,-100.00,SSE,165,1.0,4.0,93,-99.99,,,-99.99,,2013-09-09 10:03:00,
2013-09-09 05:11:00,62.0,60.0,-100.00,SSE,150,2.0,4.0,94,-99.99,,,-99.99,,2013-09-09 10:11:00,
2013-09-09 05:42:00,62.0,60.0,-100.00,SSE,150,2.0,4.0,94,-99.99,,,-99.99,,2013-09-09 10:42:00,
2013-09-09 05:52:00,62.0,60.0,-100.00,SSE,150,2.0,4.0,94,-99.99,,,-99.99,,2013-09-09 10:52:00,
2013-09-09 06:02:00,62.0,60.0,-100.00,SSE,150,2.0,4.0,94,-99.99,,,-99.99,,2013-09-09 11:02:00,
2013-09-09 07:10:00,64.0,62.0,-100.00,SW,215,0.0,6.0,96,-99.99,,,-99.99,,2013-09-09 12:10:00,
2013-09-09 07:42:00,64.0,62.0,-100.00,SW,215,0.0,6.0,96,-99.99,,,-99.99,,2013-09-09 12:42:00,
2013-09-09 07:52:00,64.0,62.0,-100.00,SW,215,0.0,6.0,96,-99.99,,,-99.99,,2013-09-09 12:52:00,
2013-09-09 08:01:00,64.0,62.0,-100.00,SW,215,0.0,6.0,96,-99.99,,,-99.99,,2013-09-09 13:01:00,
2013-09-09 08:10:00,64.0,63.0,-100.00,South,185,4.0,9.0,99,-99.99,,,-99.99,,2013-09-09 13:10:00,
2013-09-09 08:42:00,64.0,63.0,-100.00,South,185,4.0,9.0,99,-99.99,,,-99.99,,2013-09-09 13:42:00,
2013-09-09 08:52:00,64.0,63.0,-100.00,South,185,4.0,9.0,99,-99.99,,,-99.99,,2013-09-09 13:52:00,
2013-09-09 09:02:00,64.0,63.0,-100.00,South,185,4.0,9.0,99,-99.99,,,-99.99,,2013-09-09 14:02:00,
2013-09-09 09:42:00,65.0,64.0,-100.00,SE,145,2.0,8.0,99,-99.99,,,-99.99,,2013-09-09 14:42:00,
2013-09-09 09:52:00,65.0,64.0,-100.00,SE,145,2.0,8.0,99,-99.99,,,-99.99,,2013-09-09 14:52:00,
2013-09-09 10:02:00,65.0,64.0,-100.00,SE,145,2.0,8.0,99,-99.99,,,-99.99,,2013-09-09 15:02:00,
2013-09-09 10:10:00,65.0,65.0,-100.00,NW,320,4.0,6.0,99,-99.99,,,-99.99,,2013-09-09 15:10:00,
2013-09-09 10:43:00,65.0,65.0,-100.00,NW,320,4.0,6.0,99,-99.99,,,-99.99,,2013-09-09 15:43:00,
2013-09-09 10:53:00,65.0,65.0,-100.00,NW,320,4.0,6.0,99,-99.99,,,-99.99,,2013-09-09 15:53:00,
2013-09-09 11:04:00,65.0,65.0,-100.00,NW,320,4.0,6.0,99,-99.99,,,-99.99,,2013-09-09 16:04:00,
2013-09-09 11:10:00,65.0,65.0,-100.00,East,85,1.0,5.0,99,-99.99,,,-99.99,,2013-09-09 16:10:00,
2013-09-09 11:44:00,65.0,65.0,-100.00,East,85,1.0,5.0,99,-99.99,,,-99.99,,2013-09-09 16:44:00,
2013-09-09 11:54:00,65.0,65.0,-100.00,East,85,1.0,5.0,99,-99.99,,,-99.99,,2013-09-09 16:54:00,
2013-09-09 12:03:00,65.0,65.0,-100.00,East,85,1.0,5.0,99,-99.99,,,-99.99,,2013-09-09 17:03:00,
2013-09-09 12:10:00,66.0,66.0,-100.00,South,180,6.0,12.0,99,-99.99,,,-99.99,,2013-09-09 17:10:00,
2013-09-09 12:43:00,66.0,66.0,-100.00,South,180,6.0,12.0,99,-99.99,,,-99.99,,2013-09-09 17:43:00,
2013-09-09 12:53:00,66.0,66.0,-100.00,South,180,6.0,12.0,99,-99.99,,,-99.99,,2013-09-09 17:53:00,
2013-09-09 13:02:00,66.0,66.0,-100.00,South,180,6.0,12.0,99,-99.99,,,-99.99,,2013-09-09 18:02:00,
2013-09-09 13:10:00,69.0,69.0,-100.00,South,180,2.0,9.0,99,-99.99,,,-99.99,,2013-09-09 18:10:00,
2013-09-09 13:42:00,69.0,69.0,-100.00,South,180,2.0,9.0,99,-99.99,,,-99.99,,2013-09-09 18:42:00,
2013-09-09 13:52:00,69.0,69.0,-100.00,South,180,2.0,9.0,99,-99.99,,,-99.99,,2013-09-09 18:52:00,
2013-09-09 14:02:00,69.0,69.0,-100.00,South,180,2.0,9.0,99,-99.99,,,-99.99,,2013-09-09 19:02:00,
2013-09-09 14:11:00,74.0,70.0,-100.00,South,170,4.0,7.0,88,-99.99,,,-99.99,,2013-09-09 19:11:00,
2013-09-09 14:43:00,74.0,70.0,-100.00,South,170,4.0,7.0,88,-99.99,,,-99.99,,2013-09-09 19:43:00,
2013-09-09 14:52:00,74.0,70.0,-100.00,South,170,4.0,7.0,88,-99.99,,,-99.99,,2013-09-09 19:52:00,
2013-09-09 15:02:00,74.0,70.0,-100.00,South,170,4.0,7.0,88,-99.99,,,-99.99,,2013-09-09 20:02:00,
2013-09-09 15:10:00,77.0,70.0,-100.00,South,180,6.0,9.0,79,-99.99,,,-99.99,,2013-09-09 20:10:00,
2013-09-09 15:42:00,77.0,70.0,-100.00,South,180,6.0,9.0,79,-99.99,,,-99.99,,2013-09-09 20:42:00,
2013-09-09 15:53:00,77.0,70.0,-100.00,South,180,6.0,9.0,79,-99.99,,,-99.99,,2013-09-09 20:53:00,
2013-09-09 16:02:00,77.0,70.0,-100.00,South,180,6.0,9.0,79,-99.99,,,-99.99,,2013-09-09 21:02:00,
2013-09-09 16:44:00,78.0,70.0,-100.00,South,175,6.0,11.0,77,-99.99,,,-99.99,,2013-09-09 21:44:00,
2013-09-09 16:54:00,78.0,70.0,-100.00,South,175,6.0,11.0,77,-99.99,,,-99.99,,2013-09-09 21:54:00,
2013-09-09 17:05:00,78.0,70.0,-100.00,South,175,6.0,11.0,77,-99.99,,,-99.99,,2013-09-09 22:05:00,
2013-09-09 17:43:00,81.0,70.0,-100.00,SSW,205,2.0,7.0,71,-99.99,,,-99.99,,2013-09-09 22:43:00,
2013-09-09 17:54:00,81.0,70.0,-100.00,SSW,205,2.0,7.0,71,-99.99,,,-99.99,,2013-09-09 22:54:00,
2013-09-09 18:03:00,81.0,70.0,-100.00,SSW,205,2.0,7.0,71,-99.99,,,-99.99,,2013-09-09 23:03:00,
2013-09-09 18:43:00,79.0,71.0,-100.00,SW,235,1.0,3.0,75,-99.99,,,-99.99,,2013-09-09 23:43:00,
2013-09-09 18:52:00,79.0,71.0,-100.00,SW,235,1.0,3.0,75,-99.99,,,-99.99,,2013-09-09 23:52:00,
2013-09-09 19:02:00,79.0,71.0,-100.00,SW,235,1.0,3.0,75,-99.99,,,-99.99,,2013-09-10 00:02:00,
2013-09-09 19:42:00,76.0,72.0,-100.00,NW,325,2.0,4.0,89,-99.99,,,-99.99,,2013-09-10 00:42:00,
2013-09-09 19:52:00,76.0,72.0,-100.00,NW,325,2.0,4.0,89,-99.99,,,-99.99,,2013-09-10 00:52:00,
2013-09-09 20:01:00,76.0,72.0,-100.00,NW,325,2.0,4.0,89,-99.99,,,-99.99,,2013-09-10 01:01:00,
2013-09-09 20:10:00,73.0,71.0,-100.00,North,10,2.0,4.0,93,-99.99,,,-99.99,,2013-09-10 01:10:00,
2013-09-09 20:42:00,73.0,71.0,-100.00,North,10,2.0,4.0,93,-99.99,,,-99.99,,2013-09-10 01:42:00,
2013-09-09 20:53:00,73.0,71.0,-100.00,North,10,2.0,4.0,93,-99.99,,,-99.99,,2013-09-10 01:53:00,
2013-09-09 21:02:00,73.0,71.0,-100.00,North,10,2.0,4.0,93,-99.99,,,-99.99,,2013-09-10 02:02:00,
2013-09-09 21:42:00,72.0,70.0,-100.00,NW,320,0.0,3.0,95,-99.99,,,-99.99,,2013-09-10 02:42:00,
2013-09-09 21:52:00,72.0,70.0,-100.00,NW,320,0.0,3.0,95,-99.99,,,-99.99,,2013-09-10 02:52:00,
2013-09-09 22:02:00,72.0,70.0,-100.00,NW,320,0.0,3.0,95,-99.99,,,-99.99,,2013-09-10 03:02:00,
2013-09-09 22:44:00,71.0,70.0,-100.00,SSE,165,1.0,1.0,96,-99.99,,,-99.99,,2013-09-10 03:44:00,
2013-09-09 22:54:00,71.0,70.0,-100.00,SSE,165,1.0,1.0,96,-99.99,,,-99.99,,2013-09-10 03:54:00,
2013-09-09 23:04:00,71.0,70.0,-100.00,SSE,165,1.0,1.0,96,-99.99,,,-99.99,,2013-09-10 04:04:00,
2013-09-09 23:10:00,70.0,69.0,-100.00,South,180,1.0,2.0,97,-99.99,,,-99.99,,2013-09-10 04:10:00,
2013-09-09 23:43:00,70.0,69.0,-100.00,South,180,1.0,2.0,97,-99.99,,,-99.99,,2013-09-10 04:43:00,
2013-09-09 23:53:00,70.0,69.0,-100.00,South,180,1.0,2.0,97,-99.99,,,-99.99,,2013-09-10 04:53:00,